createdAt,value
2017-05-21T00:00:32.744Z,0
2017-05-21T00:01:42.682Z,0
2017-05-21T00:02:52.602Z,0
2017-05-21T00:04:02.518Z,0
2017-05-21T00:05:11.803Z,0
2017-05-21T00:06:21.716Z,0
2017-05-21T00:07:31.310Z,0
2017-05-21T00:08:41.231Z,0
2017-05-21T00:09:51.163Z,0
2017-05-21T00:11:00.764Z,0
2017-05-21T00:12:10.052Z,0
2017-05-21T00:13:19.654Z,0
2017-05-21T00:14:29.922Z,0
2017-05-21T00:15:39.543Z,0
2017-05-21T00:16:49.455Z,0
2017-05-21T00:17:59.686Z,0
2017-05-21T00:19:09.605Z,0
2017-05-21T00:20:19.213Z,0
2017-05-21T00:21:28.825Z,0
2017-05-21T00:22:39.063Z,0
2017-05-21T00:23:49.283Z,0
2017-05-21T00:24:58.596Z,0
2017-05-21T00:26:08.218Z,0
2017-05-21T00:27:18.427Z,0
2017-05-21T00:28:28.651Z,0
2017-05-21T00:29:38.280Z,0
2017-05-21T00:30:48.189Z,0
2017-05-21T00:31:58.105Z,0
2017-05-21T00:33:08.037Z,0
2017-05-21T00:34:17.658Z,0
2017-05-21T00:35:27.889Z,0
2017-05-21T00:36:37.800Z,0
2017-05-21T00:37:48.024Z,0
2017-05-21T00:38:57.935Z,0
2017-05-21T00:40:08.156Z,0
2017-05-21T00:41:18.075Z,0
2017-05-21T00:42:27.968Z,0
2017-05-21T00:43:37.569Z,0
2017-05-21T00:44:47.179Z,0
2017-05-21T00:45:57.434Z,0
2017-05-21T00:47:08.187Z,0
2017-05-21T00:48:18.824Z,0
2017-05-21T00:49:28.436Z,0
2017-05-21T00:50:38.015Z,0
2017-05-21T00:51:47.923Z,0
2017-05-21T00:52:57.244Z,0
2017-05-21T00:54:07.897Z,0
2017-05-21T00:55:17.264Z,0
2017-05-21T00:56:27.561Z,0
2017-05-21T00:57:37.584Z,0
2017-05-21T00:58:48.549Z,0
2017-05-21T00:59:59.163Z,0
2017-05-21T01:01:08.530Z,0
2017-05-21T01:02:19.159Z,0
2017-05-21T01:03:29.089Z,0
2017-05-21T01:04:39.008Z,0
2017-05-21T01:05:48.971Z,0
2017-05-21T01:06:58.904Z,0
2017-05-21T01:08:08.306Z,0
2017-05-21T01:09:18.106Z,0
2017-05-21T01:10:28.328Z,0
2017-05-21T01:11:38.238Z,0
2017-05-21T01:12:48.206Z,0
2017-05-21T01:13:57.214Z,0
2017-05-21T01:15:07.126Z,0
2017-05-21T01:16:16.742Z,0
2017-05-21T01:17:26.682Z,0
2017-05-21T01:18:36.901Z,0
2017-05-21T01:19:47.173Z,0
2017-05-21T01:20:57.465Z,0
2017-05-21T01:22:07.376Z,0
2017-05-21T01:23:16.970Z,0
2017-05-21T01:24:26.896Z,0
2017-05-21T01:25:36.561Z,0
2017-05-21T01:26:46.491Z,0
2017-05-21T01:27:56.720Z,0
2017-05-21T01:29:06.636Z,0
2017-05-21T01:30:16.542Z,0
2017-05-21T01:31:26.158Z,0
2017-05-21T01:32:36.059Z,0
2017-05-21T01:33:45.060Z,0
2017-05-21T01:34:54.971Z,0
2017-05-21T01:36:04.621Z,0
2017-05-21T01:37:14.837Z,0
2017-05-21T01:38:24.751Z,0
2017-05-21T01:39:34.670Z,0
2017-05-21T01:40:44.585Z,0
2017-05-21T01:41:54.493Z,0
2017-05-21T01:43:04.714Z,0
2017-05-21T01:44:14.324Z,0
2017-05-21T01:45:24.239Z,0
2017-05-21T01:46:34.460Z,0
2017-05-21T01:47:44.441Z,0
2017-05-21T01:48:54.343Z,0
2017-05-21T01:50:03.962Z,0
2017-05-21T01:51:13.269Z,0
2017-05-21T01:52:22.568Z,0
2017-05-21T01:53:32.532Z,0
2017-05-21T01:54:41.828Z,0
2017-05-21T01:55:51.746Z,0
2017-05-21T01:57:01.364Z,0
2017-05-21T01:58:11.271Z,0
2017-05-21T01:59:20.876Z,0
2017-05-21T02:00:31.099Z,0
2017-05-21T02:01:41.028Z,0
2017-05-21T02:02:50.945Z,0
2017-05-21T02:04:00.871Z,0
2017-05-21T02:05:10.471Z,0
2017-05-21T02:06:20.392Z,0
2017-05-21T02:07:29.678Z,0
2017-05-21T02:08:38.993Z,0
2017-05-21T02:09:48.584Z,0
2017-05-21T02:10:58.784Z,0
2017-05-21T02:12:08.405Z,0
2017-05-21T02:13:18.331Z,0
2017-05-21T02:14:27.938Z,0
2017-05-21T02:15:37.532Z,0
2017-05-21T02:16:47.429Z,0
2017-05-21T02:17:57.349Z,0
2017-05-21T02:19:07.310Z,0
2017-05-21T02:20:16.920Z,0
2017-05-21T02:21:26.515Z,0
2017-05-21T02:22:35.801Z,0
2017-05-21T02:23:45.721Z,0
2017-05-21T02:24:55.942Z,0
2017-05-21T02:26:06.161Z,0
2017-05-21T02:27:16.374Z,0
2017-05-21T02:28:26.594Z,0
2017-05-21T02:29:36.493Z,0
2017-05-21T02:30:46.099Z,0
2017-05-21T02:31:56.017Z,0
2017-05-21T02:33:05.919Z,0
2017-05-21T02:34:15.528Z,0
2017-05-21T02:35:25.750Z,0
2017-05-21T02:36:35.041Z,0
2017-05-21T02:37:44.641Z,0
2017-05-21T02:38:54.547Z,0
2017-05-21T02:40:04.766Z,0
2017-05-21T02:41:14.977Z,0
2017-05-21T02:42:25.200Z,0
2017-05-21T02:43:35.103Z,0
2017-05-21T02:44:45.005Z,0
2017-05-21T02:45:54.918Z,0
2017-05-21T02:47:04.815Z,0
2017-05-21T02:48:14.737Z,0
2017-05-21T02:49:24.960Z,0
2017-05-21T02:50:34.887Z,0
2017-05-21T02:51:45.098Z,0
2017-05-21T02:52:55.325Z,0
2017-05-21T02:54:05.553Z,0
2017-05-21T02:55:15.770Z,0
2017-05-21T02:56:25.690Z,0
2017-05-21T02:57:35.946Z,0
2017-05-21T02:58:45.895Z,0
2017-05-21T02:59:56.108Z,0
2017-05-21T03:01:06.015Z,0
2017-05-21T03:02:16.246Z,0
2017-05-21T03:03:26.165Z,0
2017-05-21T03:04:35.777Z,0
2017-05-21T03:05:45.752Z,4
2017-05-21T03:06:55.352Z,4
2017-05-21T03:08:04.937Z,0
2017-05-21T03:09:14.528Z,0
2017-05-21T03:10:24.427Z,4
2017-05-21T03:11:34.020Z,4
2017-05-21T03:12:43.653Z,4
2017-05-21T03:13:53.551Z,4
2017-05-21T03:15:03.776Z,4
2017-05-21T03:16:13.061Z,8
2017-05-21T03:17:22.758Z,4
2017-05-21T03:18:32.695Z,8
2017-05-21T03:19:42.612Z,8
2017-05-21T03:20:52.574Z,12
2017-05-21T03:22:02.781Z,12
2017-05-21T03:23:12.376Z,12
2017-05-21T03:24:22.290Z,16
2017-05-21T03:25:32.204Z,16
2017-05-21T03:26:42.104Z,20
2017-05-21T03:27:52.012Z,20
2017-05-21T03:29:01.608Z,20
2017-05-21T03:30:11.232Z,24
2017-05-21T03:31:20.535Z,28
2017-05-21T03:32:29.821Z,32
2017-05-21T03:33:39.780Z,36
2017-05-21T03:34:49.709Z,36
2017-05-21T03:35:59.616Z,44
2017-05-21T03:37:09.518Z,44
2017-05-21T03:38:19.139Z,48
2017-05-21T03:39:29.365Z,52
2017-05-21T03:40:39.586Z,56
2017-05-21T03:41:49.495Z,60
2017-05-21T03:42:59.428Z,68
2017-05-21T03:44:09.654Z,72
2017-05-21T03:45:19.258Z,76
2017-05-21T03:46:29.160Z,84
2017-05-21T03:47:38.767Z,92
2017-05-21T03:48:48.996Z,96
2017-05-21T03:49:58.901Z,104
2017-05-21T03:51:09.175Z,112
2017-05-21T03:52:18.783Z,116
2017-05-21T03:53:28.708Z,128
2017-05-21T03:54:38.661Z,132
2017-05-21T03:55:48.868Z,140
2017-05-21T03:56:58.799Z,148
2017-05-21T03:58:08.399Z,156
2017-05-21T03:59:18.014Z,164
2017-05-21T04:00:27.927Z,172
2017-05-21T04:01:37.527Z,180
2017-05-21T04:02:47.456Z,192
2017-05-21T04:03:57.064Z,204
2017-05-21T04:05:07.284Z,216
2017-05-21T04:06:16.879Z,228
2017-05-21T04:07:27.087Z,240
2017-05-21T04:08:36.696Z,256
2017-05-21T04:09:46.329Z,268
2017-05-21T04:10:56.537Z,280
2017-05-21T04:12:06.456Z,292
2017-05-21T04:13:15.760Z,304
2017-05-21T04:14:25.044Z,312
2017-05-21T04:15:35.243Z,328
2017-05-21T04:16:45.147Z,340
2017-05-21T04:17:55.379Z,348
2017-05-21T04:19:05.601Z,360
2017-05-21T04:20:15.507Z,376
2017-05-21T04:21:25.100Z,392
2017-05-21T04:22:34.394Z,404
2017-05-21T04:23:43.989Z,420
2017-05-21T04:24:54.205Z,436
2017-05-21T04:26:04.119Z,452
2017-05-21T04:27:13.725Z,460
2017-05-21T04:28:23.636Z,464
2017-05-21T04:29:33.850Z,476
2017-05-21T04:30:43.768Z,484
2017-05-21T04:31:53.997Z,496
2017-05-21T04:33:04.142Z,512
2017-05-21T04:34:13.754Z,532
2017-05-21T04:35:23.057Z,552
2017-05-21T04:36:32.646Z,572
2017-05-21T04:37:42.254Z,596
2017-05-21T04:38:52.158Z,616
2017-05-21T04:40:01.450Z,636
2017-05-21T04:41:11.671Z,656
2017-05-21T04:42:21.574Z,664
2017-05-21T04:43:31.537Z,672
2017-05-21T04:44:41.438Z,684
2017-05-21T04:45:50.734Z,696
2017-05-21T04:47:00.977Z,704
2017-05-21T04:48:10.899Z,716
2017-05-21T04:49:20.205Z,728
2017-05-21T04:50:30.415Z,740
2017-05-21T04:51:40.010Z,772
2017-05-21T04:52:49.615Z,812
2017-05-21T04:53:59.524Z,844
2017-05-21T04:55:09.429Z,868
2017-05-21T04:56:19.643Z,904
2017-05-21T04:57:29.356Z,952
2017-05-21T04:58:38.658Z,1004
2017-05-21T04:59:48.582Z,1036
2017-05-21T05:00:58.483Z,1072
2017-05-21T05:02:08.387Z,1148
2017-05-21T05:03:17.982Z,1228
2017-05-21T05:04:27.274Z,1276
2017-05-21T05:05:36.871Z,1316
2017-05-21T05:06:46.761Z,1360
2017-05-21T05:07:56.366Z,1396
2017-05-21T05:09:06.286Z,1476
2017-05-21T05:10:16.508Z,1736
2017-05-21T05:11:25.492Z,2048
2017-05-21T05:12:35.402Z,2224
2017-05-21T05:13:45.324Z,2304
2017-05-21T05:14:54.628Z,2340
2017-05-21T05:16:04.847Z,2384
2017-05-21T05:17:14.750Z,2428
2017-05-21T05:18:24.965Z,2468
2017-05-21T05:19:35.480Z,2516
2017-05-21T05:20:45.396Z,2560
2017-05-21T05:21:54.695Z,2612
2017-05-21T05:23:04.298Z,2676
2017-05-21T05:24:13.906Z,2848
2017-05-21T05:25:24.135Z,2964
2017-05-21T05:26:33.731Z,2908
2017-05-21T05:27:43.346Z,2852
2017-05-21T05:28:52.974Z,2840
2017-05-21T05:30:02.883Z,2868
2017-05-21T05:31:12.797Z,2900
2017-05-21T05:32:22.700Z,2928
2017-05-21T05:33:32.324Z,2952
2017-05-21T05:34:41.915Z,2984
2017-05-21T05:35:51.843Z,3016
2017-05-21T05:39:33.789Z,3168
2017-05-21T05:43:16.412Z,3236
2017-05-21T05:44:25.403Z,3276
2017-05-21T05:45:35.018Z,3324
2017-05-21T05:46:44.625Z,3368
2017-05-21T05:47:54.240Z,3412
2017-05-21T05:49:03.839Z,3412
2017-05-21T05:50:13.751Z,3432
2017-05-21T05:51:23.655Z,3476
2017-05-21T05:52:33.567Z,3516
2017-05-21T05:53:43.472Z,3560
2017-05-21T05:54:53.089Z,3596
2017-05-21T05:56:02.409Z,3620
2017-05-21T05:57:12.021Z,3640
2017-05-21T05:58:21.933Z,3644
2017-05-21T05:59:31.855Z,3648
2017-05-21T06:00:41.777Z,3672
2017-05-21T06:01:52.005Z,3708
2017-05-21T06:03:02.225Z,3752
2017-05-21T06:04:12.130Z,3788
2017-05-21T06:05:21.740Z,3812
2017-05-21T06:06:31.945Z,3864
2017-05-21T06:07:41.869Z,3884
2017-05-21T06:08:51.781Z,3912
2017-05-21T06:10:01.706Z,3932
2017-05-21T06:11:11.909Z,3944
2017-05-21T06:12:22.286Z,4008
2017-05-21T06:13:32.225Z,4060
2017-05-21T06:14:41.843Z,4124
2017-05-21T06:15:51.755Z,4200
2017-05-21T06:17:01.694Z,4188
2017-05-21T06:18:11.297Z,4160
2017-05-21T06:19:20.601Z,4168
2017-05-21T06:20:30.523Z,4244
2017-05-21T06:21:39.815Z,4172
2017-05-21T06:22:49.726Z,3996
2017-05-21T06:23:59.936Z,4160
2017-05-21T06:25:10.155Z,4252
2017-05-21T06:26:20.068Z,4416
2017-05-21T06:27:29.382Z,4284
2017-05-21T06:28:38.992Z,3848
2017-05-21T06:29:48.320Z,3608
2017-05-21T06:30:57.626Z,3400
2017-05-21T06:32:07.225Z,2976
2017-05-21T06:33:17.131Z,2440
2017-05-21T06:34:27.360Z,2000
2017-05-21T06:35:37.275Z,1828
2017-05-21T06:36:46.570Z,1792
2017-05-21T06:37:56.482Z,1800
2017-05-21T06:39:06.401Z,1812
2017-05-21T06:40:16.008Z,1824
2017-05-21T06:41:26.230Z,1844
2017-05-21T06:42:36.455Z,1872
2017-05-21T06:43:46.494Z,1960
2017-05-21T06:44:56.786Z,2140
2017-05-21T06:46:06.706Z,2452
2017-05-21T06:47:16.933Z,3212
2017-05-21T06:48:27.196Z,3896
2017-05-21T06:49:37.423Z,4280
2017-05-21T06:50:46.742Z,4492
2017-05-21T06:51:56.408Z,5156
2017-05-21T06:53:06.309Z,7200
2017-05-21T06:54:16.236Z,10848
2017-05-21T06:55:26.453Z,25312
2017-05-21T06:56:36.053Z,38816
2017-05-21T06:57:45.664Z,41152
2017-05-21T06:58:55.605Z,29664
2017-05-21T07:00:05.204Z,13592
2017-05-21T07:01:15.114Z,11084
2017-05-21T07:02:25.024Z,10708
2017-05-21T07:03:34.632Z,11016
2017-05-21T07:04:44.852Z,11396
2017-05-21T07:05:55.071Z,11488
2017-05-21T07:07:04.971Z,11720
2017-05-21T07:08:14.874Z,11984
2017-05-21T07:09:24.794Z,12420
2017-05-21T07:10:34.394Z,13012
2017-05-21T07:11:43.695Z,13864
2017-05-21T07:12:53.609Z,14908
2017-05-21T07:14:03.829Z,19328
2017-05-21T07:15:13.741Z,36320
2017-05-21T07:16:23.361Z,50944
2017-05-21T07:17:32.961Z,50976
2017-05-21T07:18:41.960Z,53760
2017-05-21T07:19:51.562Z,52736
2017-05-21T07:21:01.172Z,50720
2017-05-21T07:22:10.483Z,53280
2017-05-21T07:23:19.782Z,53216
2017-05-21T07:24:29.690Z,50752
2017-05-21T07:25:39.970Z,46304
2017-05-21T07:26:50.186Z,47200
2017-05-21T07:28:00.121Z,49472
2017-05-21T07:29:10.021Z,49056
2017-05-21T07:30:19.938Z,48736
2017-05-21T07:31:29.534Z,49280
2017-05-21T07:32:39.134Z,51520
2017-05-21T07:33:48.441Z,51136
2017-05-21T07:34:58.354Z,50816
2017-05-21T07:36:07.965Z,52800
2017-05-21T07:37:17.561Z,51712
2017-05-21T07:38:26.855Z,52960
2017-05-21T07:39:36.790Z,55680
2017-05-21T07:40:46.760Z,58112
2017-05-21T07:41:56.727Z,53440
2017-05-21T07:43:06.655Z,52064
2017-05-21T07:44:16.571Z,53216
2017-05-21T07:45:26.531Z,50400
2017-05-21T07:46:36.458Z,50176
2017-05-21T07:47:46.071Z,55744
2017-05-21T07:48:55.387Z,56352
2017-05-21T07:50:05.624Z,55040
2017-05-21T07:51:15.522Z,56608
2017-05-21T07:52:25.119Z,58912
2017-05-21T07:53:35.033Z,60224
2017-05-21T07:54:44.931Z,56384
2017-05-21T07:55:54.536Z,53184
2017-05-21T07:57:04.805Z,51552
2017-05-21T07:58:14.103Z,53408
2017-05-21T07:59:23.719Z,55936
2017-05-21T08:00:33.349Z,48544
2017-05-21T08:01:42.645Z,54368
2017-05-21T08:02:52.561Z,60384
2017-05-21T08:04:02.165Z,58304
2017-05-21T08:05:12.408Z,58144
2017-05-21T08:06:22.324Z,58144
2017-05-21T08:07:32.237Z,54080
2017-05-21T08:08:42.457Z,54976
2017-05-21T08:09:52.062Z,60256
2017-05-21T08:11:01.724Z,61408
2017-05-21T08:12:11.354Z,56384
2017-05-21T08:13:21.274Z,58368
2017-05-21T08:14:30.576Z,60832
2017-05-21T08:15:40.579Z,60000
2017-05-21T08:16:50.183Z,59584
2017-05-21T08:17:59.780Z,57536
2017-05-21T08:19:09.683Z,57248
2017-05-21T08:20:19.600Z,56128
2017-05-21T08:21:29.204Z,58528
2017-05-21T08:22:38.818Z,54464
2017-05-21T08:23:48.732Z,58592
2017-05-21T08:24:58.043Z,57184
2017-05-21T08:26:07.948Z,53120
2017-05-21T08:27:17.868Z,51808
2017-05-21T08:28:27.775Z,56896
2017-05-21T08:29:37.982Z,59136
2017-05-21T08:30:46.982Z,60384
2017-05-21T08:31:56.893Z,56544
2017-05-21T08:33:07.204Z,57216
2017-05-21T08:34:16.821Z,52640
2017-05-21T08:35:27.046Z,55872
2017-05-21T08:36:36.671Z,61024
2017-05-21T08:37:46.895Z,64736
2017-05-21T08:38:57.130Z,63840
2017-05-21T08:40:07.063Z,62784
2017-05-21T08:41:16.975Z,62720
2017-05-21T08:42:26.579Z,63488
2017-05-21T08:43:35.592Z,64544
2017-05-21T08:44:44.699Z,66752
2017-05-21T08:45:54.608Z,61472
2017-05-21T08:47:04.525Z,61280
2017-05-21T08:48:14.151Z,60000
2017-05-21T08:49:24.377Z,34176
2017-05-21T08:50:33.991Z,9516
2017-05-21T08:51:43.640Z,5868
2017-05-21T08:52:53.264Z,4744
2017-05-21T08:54:03.505Z,4104
2017-05-21T08:55:13.452Z,3692
2017-05-21T08:56:23.687Z,3420
2017-05-21T08:57:33.319Z,3196
2017-05-21T08:58:42.950Z,2900
2017-05-21T08:59:52.582Z,2468
2017-05-21T09:01:02.207Z,1920
2017-05-21T09:02:12.435Z,1664
2017-05-21T09:03:22.041Z,1572
2017-05-21T09:04:31.649Z,1540
2017-05-21T09:05:41.591Z,1480
2017-05-21T09:06:51.200Z,1440
2017-05-21T09:08:00.818Z,1416
2017-05-21T09:09:10.428Z,1392
2017-05-21T09:10:20.346Z,1188
2017-05-21T09:11:30.284Z,1412
2017-05-21T09:12:41.064Z,1404
2017-05-21T09:13:51.886Z,1388
2017-05-21T09:15:02.131Z,1376
2017-05-21T09:16:12.728Z,1368
2017-05-21T09:17:23.553Z,1348
2017-05-21T09:18:32.637Z,1332
2017-05-21T09:19:42.443Z,1324
2017-05-21T09:20:52.537Z,1320
2017-05-21T09:22:01.985Z,1336
2017-05-21T09:23:11.600Z,1352
2017-05-21T09:24:21.683Z,1368
2017-05-21T09:25:31.590Z,1372
2017-05-21T09:26:41.310Z,1364
2017-05-21T09:27:50.952Z,1364
2017-05-21T09:29:00.669Z,1372
2017-05-21T09:30:10.857Z,1364
2017-05-21T09:31:21.608Z,1372
2017-05-21T09:32:31.578Z,1364
2017-05-21T09:33:42.550Z,1356
2017-05-21T09:34:53.156Z,1340
2017-05-21T09:36:02.586Z,1324
2017-05-21T09:37:12.879Z,1312
2017-05-21T09:38:22.516Z,1320
2017-05-21T09:39:32.455Z,1336
2017-05-21T09:40:42.399Z,1356
2017-05-21T09:41:52.201Z,1372
2017-05-21T09:43:01.836Z,1368
2017-05-21T09:44:12.008Z,1368
2017-05-21T09:45:21.935Z,1368
2017-05-21T09:46:31.850Z,1352
2017-05-21T09:47:41.764Z,1340
2017-05-21T09:48:51.068Z,1312
2017-05-21T09:50:00.731Z,1288
2017-05-21T09:51:10.964Z,1264
2017-05-21T09:52:21.185Z,1228
2017-05-21T09:53:31.103Z,1200
2017-05-21T09:54:41.014Z,1176
2017-05-21T09:55:50.646Z,1164
2017-05-21T09:57:00.577Z,1168
2017-05-21T09:58:10.821Z,1164
2017-05-21T09:59:21.450Z,1164
2017-05-21T10:00:31.562Z,1176
2017-05-21T10:01:41.469Z,1176
2017-05-21T10:02:51.714Z,1196
2017-05-21T10:04:02.347Z,1224
2017-05-21T10:05:12.038Z,1228
2017-05-21T10:06:21.350Z,1232
2017-05-21T10:07:31.490Z,1236
2017-05-21T10:08:40.791Z,1236
2017-05-21T10:09:50.965Z,1228
2017-05-21T10:11:01.360Z,1216
2017-05-21T10:12:10.958Z,1204
2017-05-21T10:13:20.888Z,1192
2017-05-21T10:14:30.957Z,1172
2017-05-21T10:15:40.570Z,1148
2017-05-21T10:16:50.487Z,1104
2017-05-21T10:18:00.089Z,1108
2017-05-21T10:19:10.008Z,1088
2017-05-21T10:20:19.610Z,1072
2017-05-21T10:21:29.230Z,1072
2017-05-21T10:22:38.521Z,1064
2017-05-21T10:23:48.453Z,1044
2017-05-21T10:24:58.403Z,1028
2017-05-21T10:26:08.327Z,1012
2017-05-21T10:27:17.649Z,988
2017-05-21T10:28:27.735Z,996
2017-05-21T10:29:37.655Z,1004
2017-05-21T10:30:47.596Z,1012
2017-05-21T10:31:57.655Z,1020
2017-05-21T10:33:07.906Z,1012
2017-05-21T10:34:17.981Z,1016
2017-05-21T10:35:27.909Z,1000
2017-05-21T10:36:38.171Z,1000
2017-05-21T10:37:48.147Z,1004
2017-05-21T10:38:57.474Z,1024
2017-05-21T10:40:07.535Z,1040
2017-05-21T10:41:17.456Z,1056
2017-05-21T10:42:26.775Z,1076
2017-05-21T10:43:36.388Z,1092
2017-05-21T10:44:46.300Z,1100
2017-05-21T10:45:56.225Z,1104
2017-05-21T10:47:05.554Z,1108
2017-05-21T10:48:15.155Z,1112
2017-05-21T10:49:25.384Z,1112
2017-05-21T10:50:35.619Z,1132
2017-05-21T10:51:45.341Z,1140
2017-05-21T10:52:55.244Z,1144
2017-05-21T10:54:05.145Z,1156
2017-05-21T10:55:15.056Z,1160
2017-05-21T10:56:24.345Z,1168
2017-05-21T10:57:33.957Z,1188
2017-05-21T10:58:44.210Z,1208
2017-05-21T10:59:53.806Z,1228
2017-05-21T11:01:03.419Z,1236
2017-05-21T11:02:13.346Z,1248
2017-05-21T11:03:22.941Z,1276
2017-05-21T11:04:33.157Z,1292
2017-05-21T11:05:43.394Z,1316
2017-05-21T11:06:53.015Z,1340
2017-05-21T11:08:02.924Z,1364
2017-05-21T11:09:12.524Z,1376
2017-05-21T11:10:21.823Z,1424
2017-05-21T11:11:31.421Z,1488
2017-05-21T11:12:41.331Z,1516
2017-05-21T11:13:51.253Z,1572
2017-05-21T11:15:01.317Z,1644
2017-05-21T11:16:11.234Z,1624
2017-05-21T11:17:20.845Z,1588
2017-05-21T11:18:30.443Z,1592
2017-05-21T11:19:40.357Z,1600
2017-05-21T11:20:50.317Z,1628
2017-05-21T11:21:59.920Z,1652
2017-05-21T11:23:09.514Z,1672
2017-05-21T11:24:19.113Z,1688
2017-05-21T11:25:29.028Z,1704
2017-05-21T11:26:39.241Z,1728
2017-05-21T11:27:49.170Z,1760
2017-05-21T11:28:59.377Z,1792
2017-05-21T11:30:08.974Z,1812
2017-05-21T11:31:18.581Z,1832
2017-05-21T11:32:28.947Z,1844
2017-05-21T11:33:39.189Z,1852
2017-05-21T11:34:49.100Z,1852
2017-05-21T11:35:58.728Z,1868
2017-05-21T11:37:08.630Z,1860
2017-05-21T11:38:19.202Z,1844
2017-05-21T11:39:29.409Z,1820
2017-05-21T11:40:39.333Z,1796
2017-05-21T11:41:48.350Z,1780
2017-05-21T11:42:58.262Z,1768
2017-05-21T11:44:08.023Z,1752
2017-05-21T11:45:18.249Z,1748
2017-05-21T11:46:28.150Z,1744
2017-05-21T11:47:38.075Z,1740
2017-05-21T11:48:47.687Z,1724
2017-05-21T11:49:57.334Z,1712
2017-05-21T11:51:06.939Z,1712
2017-05-21T11:52:17.160Z,1720
2017-05-21T11:53:27.376Z,1716
2017-05-21T11:54:37.287Z,1716
2017-05-21T11:55:47.232Z,1632
2017-05-21T11:56:56.844Z,1628
2017-05-21T11:58:06.435Z,1720
2017-05-21T11:59:16.654Z,1740
2017-05-21T12:00:25.943Z,1744
2017-05-21T12:01:35.649Z,1732
2017-05-21T12:02:45.563Z,1732
2017-05-21T12:03:55.471Z,1732
2017-05-21T12:05:05.373Z,1708
2017-05-21T12:06:14.971Z,1692
2017-05-21T12:07:24.267Z,1676
2017-05-21T12:08:34.169Z,1620
2017-05-21T12:09:44.382Z,1652
2017-05-21T12:10:54.299Z,1624
2017-05-21T12:12:04.518Z,1612
2017-05-21T12:13:14.570Z,1584
2017-05-21T12:14:24.791Z,1556
2017-05-21T12:15:34.698Z,1520
2017-05-21T12:16:44.305Z,1500
2017-05-21T12:17:54.219Z,1484
2017-05-21T12:19:03.978Z,1452
2017-05-21T12:20:14.193Z,1444
2017-05-21T12:21:24.395Z,1432
2017-05-21T12:22:34.312Z,1416
2017-05-21T12:23:44.548Z,1396
2017-05-21T12:24:54.452Z,1388
2017-05-21T12:26:04.352Z,1392
2017-05-21T12:27:14.260Z,1396
2017-05-21T12:28:24.497Z,1400
2017-05-21T12:29:34.718Z,1416
2017-05-21T12:30:44.465Z,1416
2017-05-21T12:31:54.055Z,1424
2017-05-21T12:33:03.663Z,1432
2017-05-21T12:34:13.269Z,1432
2017-05-21T12:35:22.870Z,1440
2017-05-21T12:36:32.820Z,1456
2017-05-21T12:37:42.129Z,1468
2017-05-21T12:38:51.743Z,1488
2017-05-21T12:40:01.360Z,1516
2017-05-21T12:41:11.277Z,1540
2017-05-21T12:42:21.336Z,1564
2017-05-21T12:43:31.562Z,1596
2017-05-21T12:44:41.771Z,1620
2017-05-21T12:45:51.677Z,1620
2017-05-21T12:47:01.581Z,1632
2017-05-21T12:48:11.485Z,1644
2017-05-21T12:49:21.407Z,1656
2017-05-21T12:50:31.333Z,1656
2017-05-21T12:51:40.627Z,1644
2017-05-21T12:52:50.546Z,1636
2017-05-21T12:54:00.915Z,1620
2017-05-21T12:55:10.523Z,1608
2017-05-21T12:56:20.761Z,1584
2017-05-21T12:57:30.413Z,1564
2017-05-21T12:58:40.399Z,1536
2017-05-21T12:59:50.440Z,1504
2017-05-21T13:01:00.644Z,1472
2017-05-21T13:02:10.257Z,1456
2017-05-21T13:03:20.167Z,1420
2017-05-21T13:04:30.394Z,1384
2017-05-21T13:05:40.164Z,1356
2017-05-21T13:06:50.066Z,1352
2017-05-21T13:07:59.990Z,1356
2017-05-21T13:09:09.907Z,1352
2017-05-21T13:10:19.563Z,1348
2017-05-21T13:11:29.168Z,1332
2017-05-21T13:12:39.395Z,1324
2017-05-21T13:13:49.302Z,1324
2017-05-21T13:14:59.258Z,1344
2017-05-21T13:16:09.181Z,1344
2017-05-21T13:17:19.171Z,1352
2017-05-21T13:18:29.074Z,1356
2017-05-21T13:19:38.401Z,1360
2017-05-21T13:20:47.703Z,1368
2017-05-21T13:21:56.697Z,1380
2017-05-21T13:23:06.085Z,1384
2017-05-21T13:24:15.992Z,1384
2017-05-21T13:25:25.932Z,1396
2017-05-21T13:26:35.553Z,1412
2017-05-21T13:27:45.479Z,1420
2017-05-21T13:28:55.191Z,1424
2017-05-21T13:30:04.844Z,1424
2017-05-21T13:31:14.755Z,1404
2017-05-21T13:32:24.058Z,1384
2017-05-21T13:33:33.721Z,1380
2017-05-21T13:34:43.498Z,1384
2017-05-21T13:35:53.102Z,1384
2017-05-21T13:37:02.741Z,1400
2017-05-21T13:38:12.655Z,1412
2017-05-21T13:39:22.269Z,1424
2017-05-21T13:40:32.349Z,1404
2017-05-21T13:41:42.257Z,1392
2017-05-21T13:42:52.195Z,1380
2017-05-21T13:44:01.806Z,1372
2017-05-21T13:45:11.725Z,1372
2017-05-21T13:46:21.504Z,1368
2017-05-21T13:47:31.117Z,1368
2017-05-21T13:48:41.048Z,1376
2017-05-21T13:49:50.975Z,1372
2017-05-21T13:50:59.963Z,1372
2017-05-21T13:52:09.889Z,1336
2017-05-21T13:53:19.516Z,1364
2017-05-21T13:54:29.128Z,1444
2017-05-21T13:55:38.746Z,1512
2017-05-21T13:56:48.980Z,1524
2017-05-21T13:57:59.423Z,1552
2017-05-21T13:59:09.351Z,1604
2017-05-21T14:00:19.268Z,1620
2017-05-21T14:01:28.897Z,1576
2017-05-21T14:02:38.541Z,1612
2017-05-21T14:03:48.535Z,1636
2017-05-21T14:04:57.947Z,1640
2017-05-21T14:06:07.598Z,1628
2017-05-21T14:07:17.249Z,1640
2017-05-21T14:08:26.938Z,1692
2017-05-21T14:09:36.995Z,1680
2017-05-21T14:10:46.308Z,1680
2017-05-21T14:11:55.608Z,1688
2017-05-21T14:13:05.240Z,1664
2017-05-21T14:14:15.168Z,1644
2017-05-21T14:15:25.272Z,1604
2017-05-21T14:16:34.911Z,1580
2017-05-21T14:17:44.240Z,1532
2017-05-21T14:18:53.255Z,1520
2017-05-21T14:20:03.526Z,1484
2017-05-21T14:21:12.996Z,1440
2017-05-21T14:22:22.755Z,1428
2017-05-21T14:23:32.389Z,1408
2017-05-21T14:24:42.344Z,1424
2017-05-21T14:25:51.107Z,1424
2017-05-21T14:27:00.625Z,1380
2017-05-21T14:28:10.316Z,1408
2017-05-21T14:29:19.926Z,1412
2017-05-21T14:30:30.169Z,1396
2017-05-21T14:31:39.493Z,1412
2017-05-21T14:32:48.694Z,1484
2017-05-21T14:33:59.008Z,1464
2017-05-21T14:35:09.018Z,1472
2017-05-21T14:36:17.697Z,1488
2017-05-21T14:37:28.026Z,1464
2017-05-21T14:38:38.263Z,1448
2017-05-21T14:39:48.189Z,1488
2017-05-21T14:40:57.818Z,1500
2017-05-21T14:42:07.747Z,1516
2017-05-21T14:43:18.055Z,1468
2017-05-21T14:44:27.538Z,1452
2017-05-21T14:45:37.358Z,1428
2017-05-21T14:46:46.979Z,1412
2017-05-21T14:47:56.048Z,1400
2017-05-21T14:49:06.358Z,1352
2017-05-21T14:50:16.642Z,1320
2017-05-21T14:51:26.342Z,1316
2017-05-21T14:52:36.340Z,1284
2017-05-21T14:53:46.387Z,1324
2017-05-21T14:54:55.448Z,1348
2017-05-21T14:56:04.500Z,1340
2017-05-21T14:57:13.883Z,1332
2017-05-21T14:58:24.487Z,1316
2017-05-21T14:59:35.080Z,1292
2017-05-21T15:00:45.081Z,1300
2017-05-21T15:01:54.849Z,1308
2017-05-21T15:03:04.515Z,1320
2017-05-21T15:04:15.161Z,1324
2017-05-21T15:05:25.785Z,1332
2017-05-21T15:06:36.005Z,1312
2017-05-21T15:07:46.038Z,1296
2017-05-21T15:08:55.678Z,1292
2017-05-21T15:10:05.589Z,1284
2017-05-21T15:11:15.509Z,1276
2017-05-21T15:12:25.751Z,1272
2017-05-21T15:13:35.969Z,1264
2017-05-21T15:14:45.275Z,1284
2017-05-21T15:15:55.179Z,1360
2017-05-21T15:17:05.098Z,1376
2017-05-21T15:18:14.723Z,1388
2017-05-21T15:19:24.950Z,1400
2017-05-21T15:20:35.174Z,1380
2017-05-21T15:21:45.085Z,1440
2017-05-21T15:22:55.001Z,1428
2017-05-21T15:24:05.239Z,1424
2017-05-21T15:25:15.648Z,1444
2017-05-21T15:26:25.393Z,1444
2017-05-21T15:27:35.640Z,1440
2017-05-21T15:28:45.725Z,1416
2017-05-21T15:29:55.796Z,1420
2017-05-21T15:31:06.782Z,1400
2017-05-21T15:32:16.832Z,1388
2017-05-21T15:33:27.025Z,1360
2017-05-21T15:34:36.628Z,1348
2017-05-21T15:35:45.642Z,1356
2017-05-21T15:36:55.120Z,1288
2017-05-21T15:38:05.356Z,1228
2017-05-21T15:39:15.281Z,1208
2017-05-21T15:40:24.597Z,1180
2017-05-21T15:41:34.525Z,1156
2017-05-21T15:42:44.465Z,1148
2017-05-21T15:43:54.081Z,1152
2017-05-21T15:45:04.003Z,1140
2017-05-21T15:46:14.258Z,1132
2017-05-21T15:47:23.274Z,1132
2017-05-21T15:48:33.342Z,1128
2017-05-21T15:49:43.286Z,1140
2017-05-21T15:50:52.891Z,1160
2017-05-21T15:52:02.497Z,1136
2017-05-21T15:53:12.462Z,1164
2017-05-21T15:54:22.240Z,1128
2017-05-21T15:55:32.170Z,1180